EGNS/IOM METAR and TAF weather

Enter ICAO airport designator
Station Type Date Time Source
EGNS METAR 2020/02/29 02:50 UTC NOAA

EGNS 290250Z 25017KT 8000 -RA SCT012 OVC040 07/06 Q0975


Station Type Date Time Source
EGNS Decoded METAR 2020/02/29 02:50 UTC NOAA

Isle Of Man / Ronaldsway Airport, United Kingdom (EGNS) 54-05N 004-38W 0M
Feb 28, 2020 - 09:50 PM EST / 2020.02.29 0250 UTC
Wind: from the WSW (250 degrees) at 20 MPH (17 KT):0
Visibility: 4 mile(s):0
Sky conditions: overcast
Weather: light rain
Temperature: 44 F (7 C)
Dew Point: 42 F (6 C)
Relative Humidity: 93%
Pressure (altimeter): 28.79 in. Hg (0975 hPa)
ob: EGNS 290250Z 25017KT 8000 -RA SCT012 OVC040 07/06 Q0975
cycle: 3

Station Type Date Time Source
EGNS TAF 2019/01/16 05:00 UTC NOAA

TAF EGNS 160500 Z 1606/1615 28020KT 9999 FEW010 BKN025
TEMPO 1606/1609 6000 RA BKN010 PROB30
TEMPO 1613/1615 7000 -SHRA

Example: see airport list